Time;durP1;ratioP1;P1;durP2;ratioP2;P2;SDS_P1;SDS_P2;PMS_P1;PMS_P2;Temp;Humidity;BMP_temperature;BMP_pressure;BME280_temperature;BME280_humidity;BME280_pressure;Samples;Min_cycle;Max_cycle;Signal;HPM_P1;HPM_P2
2021/12/15 00:02:15;;;;;;;9.10;8.13;;;;;;;8.22;92.17;102035.88;5046652;28;20202;-87
2021/12/15 00:04:43;;;;;;;11.13;8.20;;;;;;;8.23;92.03;102036.72;5052266;28;20217;-87
2021/12/15 00:07:10;;;;;;;8.77;7.87;;;;;;;8.23;91.61;102028.78;5058953;28;20222;-86
2021/12/15 00:09:36;;;;;;;8.13;7.30;;;;;;;8.24;91.92;102022.56;5068544;28;20225;-86
2021/12/15 00:12:04;;;;;;;9.23;7.73;;;;;;;8.22;91.93;102016.41;5057824;28;20208;-87
2021/12/15 00:14:33;;;;;;;9.00;7.60;;;;;;;8.24;91.90;102033.16;5064036;28;20290;-86
2021/12/15 00:17:02;;;;;;;8.20;7.40;;;;;;;8.24;91.61;102023.38;5060615;28;20330;-86
2021/12/15 00:19:29;;;;;;;8.90;8.00;;;;;;;8.24;92.00;102026.03;5048797;28;20218;-85
2021/12/15 00:21:56;;;;;;;8.77;7.60;;;;;;;8.22;91.43;102030.56;5056806;28;20198;-87
2021/12/15 00:24:24;;;;;;;8.40;7.50;;;;;;;8.24;91.61;102035.81;5047989;28;20210;-85
2021/12/15 00:26:51;;;;;;;8.10;6.97;;;;;;;8.24;91.79;102034.00;5053279;28;20248;-84
2021/12/15 00:29:18;;;;;;;8.77;7.87;;;;;;;8.22;91.59;102027.91;5059782;28;20227;-84
2021/12/15 00:31:46;;;;;;;8.63;7.37;;;;;;;8.23;91.66;102031.44;5048192;28;20234;-85
2021/12/15 00:34:15;;;;;;;6.83;6.00;;;;;;;8.23;91.38;102028.78;5066827;28;20599;-85
2021/12/15 00:36:44;;;;;;;8.77;7.87;;;;;;;8.21;91.52;102034.13;5062666;28;20659;-85
2021/12/15 00:39:14;;;;;;;8.70;7.80;;;;;;;8.24;91.83;102030.50;5055031;28;20238;-84
2021/12/15 00:41:42;;;;;;;9.33;7.20;;;;;;;8.24;91.60;102027.84;5053283;28;20222;-85
2021/12/15 00:44:09;;;;;;;8.47;7.50;;;;;;;8.25;91.80;102038.41;5059784;28;20204;-83
2021/12/15 00:46:37;;;;;;;8.37;6.77;;;;;;;8.26;91.14;102028.66;5038082;28;20240;-84
2021/12/15 00:49:04;;;;;;;11.13;7.73;;;;;;;8.27;91.77;102030.38;5047604;28;20300;-84
2021/12/15 00:51:32;;;;;;;7.60;6.80;;;;;;;8.26;91.94;102031.31;5040871;28;20229;-86
2021/12/15 00:53:59;;;;;;;7.23;6.30;;;;;;;8.26;91.51;102037.47;5055181;28;20216;-86
2021/12/15 00:56:26;;;;;;;8.30;7.03;;;;;;;8.27;91.61;102033.03;5061672;28;20210;-85
2021/12/15 00:58:53;;;;;;;8.40;7.23;;;;;;;8.27;91.83;102041.00;5062455;28;20235;-85
2021/12/15 01:01:19;;;;;;;7.83;6.63;;;;;;;8.25;91.35;102033.09;5059679;28;20305;-85
2021/12/15 01:03:47;;;;;;;6.77;6.07;;;;;;;8.27;91.96;102036.56;5047152;28;20588;-86
2021/12/15 01:06:17;;;;;;;7.23;6.47;;;;;;;8.26;92.08;102036.59;5044925;28;20230;-84
2021/12/15 01:08:52;;;;;;;7.70;6.90;;;;;;;8.26;91.72;102028.66;5050475;28;20233;-84
2021/12/15 01:11:28;;;;;;;7.63;6.00;;;;;;;8.26;91.65;102028.66;5053524;28;20292;-84
2021/12/15 01:22:15;;;;;;;8.40;6.97;;;;;;;8.23;92.21;102032.28;5053120;28;20265;-86
2021/12/15 01:24:43;;;;;;;9.93;8.03;;;;;;;8.22;91.61;102035.00;5054856;28;20206;-85
2021/12/15 01:27:09;;;;;;;8.53;7.30;;;;;;;8.22;92.31;102035.00;5050545;28;20203;-86
2021/12/15 01:29:37;;;;;;;9.30;7.70;;;;;;;8.22;92.54;102035.88;5055558;28;20312;-86
2021/12/15 01:32:04;;;;;;;9.60;8.23;;;;;;;8.23;92.22;102039.38;5052134;28;20570;-85
2021/12/15 01:34:31;;;;;;;9.97;7.70;;;;;;;8.24;92.03;102043.78;5042247;28;20285;-86
2021/12/15 01:36:58;;;;;;;8.90;7.93;;;;;;;8.23;92.38;102042.91;5055496;28;20603;-85
2021/12/15 01:39:25;;;;;;;10.63;8.33;;;;;;;8.24;91.99;102046.44;5053030;28;20270;-82
2021/12/15 01:41:55;;;;;;;9.97;8.63;;;;;;;8.23;92.68;102048.22;5043771;28;20219;-83
2021/12/15 01:47:06;;;;;;;12.10;9.13;;;;;;;8.26;92.19;102045.44;5047410;28;20224;-81
2021/12/15 01:49:38;;;;;;;12.37;9.83;;;;;;;8.26;92.71;102056.06;5052843;28;20233;-83
2021/12/15 01:52:09;;;;;;;14.27;11.00;;;;;;;8.26;92.35;102050.75;5056749;28;20679;-83
2021/12/15 01:54:38;;;;;;;13.57;9.83;;;;;;;8.27;92.06;102049.84;5047122;28;20217;-82
2021/12/15 01:57:08;;;;;;;14.83;10.97;;;;;;;8.28;92.57;102048.91;5045000;28;20206;-82
2021/12/15 01:59:35;;;;;;;13.30;10.30;;;;;;;8.29;92.01;102048.00;5051483;28;20726;-82
2021/12/15 02:02:02;;;;;;;13.63;10.00;;;;;;;8.29;92.87;102047.13;5043468;28;20212;-83
2021/12/15 02:04:29;;;;;;;12.00;10.43;;;;;;;8.28;92.80;102034.78;5055526;28;20206;-83
2021/12/15 02:06:55;;;;;;;13.53;10.13;;;;;;;8.30;92.86;102054.19;5053514;28;20702;-83
2021/12/15 02:09:42;;;;;;;12.97;10.30;;;;;;;8.29;92.44;102053.31;5054559;28;20237;-81
2021/12/15 02:12:12;;;;;;;15.00;10.70;;;;;;;8.32;92.72;102057.69;5042539;28;20235;-81
2021/12/15 02:14:39;;;;;;;12.97;10.23;;;;;;;8.31;93.22;102054.13;5055932;28;20209;-83
2021/12/15 02:17:06;;;;;;;13.57;10.40;;;;;;;8.32;92.76;102047.94;5050050;28;20221;-83
2021/12/15 02:19:33;;;;;;;17.00;11.40;;;;;;;8.32;92.02;102050.59;5048393;28;20237;-84
2021/12/15 02:22:01;;;;;;;13.27;10.37;;;;;;;8.34;92.58;102046.13;5047341;28;20689;-83
2021/12/15 02:24:29;;;;;;;13.67;10.40;;;;;;;8.32;92.72;102039.13;5054235;28;20201;-84
2021/12/15 02:26:59;;;;;;;14.97;11.90;;;;;;;8.33;92.43;102047.03;5053051;28;20247;-84
2021/12/15 02:29:30;;;;;;;15.70;11.57;;;;;;;8.33;92.89;102047.03;5055200;28;20221;-84
2021/12/15 02:32:06;;;;;;;16.03;11.23;;;;;;;8.34;92.47;102048.78;5054049;28;20212;-84
2021/12/15 02:34:55;;;;;;;13.90;11.60;;;;;;;8.35;92.30;102047.84;5054236;28;20232;-84
2021/12/15 02:37:22;;;;;;;14.50;11.00;;;;;;;8.37;92.57;102041.63;5035437;28;20680;-84
2021/12/15 02:39:52;;;;;;;16.70;11.63;;;;;;;8.36;92.51;102046.06;5053638;28;20222;-82
2021/12/15 02:42:19;;;;;;;14.47;11.60;;;;;;;8.38;92.68;102043.38;5053837;28;20313;-83
2021/12/15 02:44:46;;;;;;;14.80;11.17;;;;;;;8.38;92.67;102040.72;5053669;28;20686;-82
2021/12/15 02:47:14;;;;;;;16.13;12.10;;;;;;;8.38;92.60;102036.28;5053281;28;20233;-82
2021/12/15 02:49:41;;;;;;;18.93;12.53;;;;;;;8.38;92.73;102043.38;5047851;28;20249;-83
2021/12/15 02:52:08;;;;;;;16.30;11.97;;;;;;;8.40;92.65;102045.06;5045819;28;20289;-82
2021/12/15 02:54:37;;;;;;;15.80;12.33;;;;;;;8.38;92.47;102038.94;5048952;28;20221;-82
2021/12/15 02:57:09;;;;;;;17.93;12.77;;;;;;;8.39;92.47;102043.31;5044992;28;20652;-82
2021/12/15 02:59:46;;;;;;;16.27;12.47;;;;;;;8.41;92.87;102048.59;5039628;28;20233;-83
2021/12/15 03:02:26;;;;;;;20.50;13.53;;;;;;;8.41;92.64;102040.63;5054115;28;20193;-82
2021/12/15 03:05:08;;;;;;;18.83;13.13;;;;;;;8.40;92.93;102045.06;5049215;28;20292;-82
2021/12/15 03:07:41;;;;;;;20.77;13.73;;;;;;;8.40;92.51;102045.06;5041873;28;20599;-82
2021/12/15 03:15:39;;;;;;;21.97;14.23;;;;;;;8.40;92.84;102045.06;5052266;28;20319;-81
2021/12/15 03:18:09;;;;;;;19.97;14.03;;;;;;;8.41;92.68;102045.94;5042185;28;20981;-81
2021/12/15 03:20:41;;;;;;;19.03;13.67;;;;;;;8.41;92.54;102045.94;5054401;28;20561;-83
2021/12/15 03:23:10;;;;;;;22.70;12.93;;;;;;;8.43;93.16;102036.09;5052668;28;20205;-81
2021/12/15 03:25:38;;;;;;;20.70;13.93;;;;;;;8.43;93.00;102034.31;5047387;28;20609;-81
2021/12/15 03:33:56;;;;;;;19.93;12.57;;;;;;;8.46;93.21;102043.97;5068491;28;20583;-81
2021/12/15 03:36:37;;;;;;;17.13;12.63;;;;;;;8.47;93.76;102046.59;5057562;28;20203;-81
2021/12/15 03:39:06;;;;;;;16.93;12.30;;;;;;;8.48;93.49;102042.13;5052199;28;20606;-83
2021/12/15 03:41:34;;;;;;;19.13;12.80;;;;;;;8.48;92.85;102047.44;5057331;28;20327;-81
2021/12/15 03:44:02;;;;;;;19.33;13.20;;;;;;;8.49;93.48;102041.22;5056058;28;20202;-81
2021/12/15 03:46:30;;;;;;;20.53;12.00;;;;;;;8.48;93.17;102040.34;5037844;28;20233;-83
2021/12/15 03:48:58;;;;;;;17.90;12.47;;;;;;;8.49;94.00;102047.41;5055099;28;20256;-82
2021/12/15 03:51:25;;;;;;;18.17;12.70;;;;;;;8.50;93.18;102046.47;5056764;28;20579;-82
2021/12/15 03:53:52;;;;;;;17.00;12.77;;;;;;;8.51;93.17;102042.03;5058868;28;20300;-82
2021/12/15 03:56:19;;;;;;;17.93;11.90;;;;;;;8.52;93.36;102038.47;5058202;28;20568;-82
2021/12/15 03:58:48;;;;;;;17.03;12.67;;;;;;;8.53;93.90;102034.91;5059234;28;20217;-81
2021/12/15 04:01:19;;;;;;;22.03;13.73;;;;;;;8.53;93.63;102037.56;5047285;28;20212;-82
2021/12/15 04:03:50;;;;;;;19.73;13.17;;;;;;;8.57;93.56;102048.03;5047259;28;20272;-81
2021/12/15 04:06:20;;;;;;;18.77;14.50;;;;;;;8.53;93.85;102035.78;5046405;28;20256;-80
2021/12/15 04:08:48;;;;;;;19.87;13.30;;;;;;;8.56;93.90;102035.69;5058892;28;20344;-81
2021/12/15 04:11:17;;;;;;;19.27;14.03;;;;;;;8.56;93.71;102040.13;5056351;28;20212;-81
2021/12/15 04:13:46;;;;;;;20.77;14.10;;;;;;;8.58;94.15;102047.13;5049592;28;20213;-82
2021/12/15 04:16:38;;;;;;;21.90;14.67;;;;;;;8.56;93.34;102038.34;5052771;28;20241;-81
2021/12/15 04:19:05;;;;;;;21.53;14.67;;;;;;;8.55;93.50;102052.53;5050895;28;20273;-82
2021/12/15 04:21:32;;;;;;;20.50;13.70;;;;;;;8.58;93.46;102043.59;5044573;28;20208;-81
2021/12/15 04:23:59;;;;;;;19.97;13.87;;;;;;;8.59;93.35;102046.19;5051295;28;20205;-81
2021/12/15 04:26:27;;;;;;;22.97;14.07;;;;;;;8.60;93.54;102047.03;5056319;28;20232;-82
2021/12/15 04:28:54;;;;;;;19.93;14.33;;;;;;;8.58;94.08;102054.22;5038530;28;20226;-82
2021/12/15 04:31:26;;;;;;;20.33;14.17;;;;;;;8.56;93.50;102058.69;5050751;28;20296;-83
2021/12/15 04:33:55;;;;;;;18.93;13.20;;;;;;;8.55;93.52;102060.50;5044081;28;20202;-82
2021/12/15 04:36:25;;;;;;;17.10;12.20;;;;;;;8.56;93.69;102053.41;5062919;28;20206;-81
2021/12/15 04:38:53;;;;;;;15.30;10.90;;;;;;;8.56;93.72;102061.34;5057386;28;20230;-80
2021/12/15 04:41:21;;;;;;;15.07;11.63;;;;;;;8.56;94.06;102061.34;5062238;28;20201;-81
2021/12/15 04:43:56;;;;;;;16.03;11.03;;;;;;;8.56;93.56;102072.84;5068295;28;20217;-81
2021/12/15 04:46:27;;;;;;;13.40;9.93;;;;;;;8.57;94.36;102074.59;5062178;28;20252;-82
2021/12/15 04:48:53;;;;;;;17.83;11.87;;;;;;;8.59;93.51;102078.06;5043287;28;20226;-82
2021/12/15 04:51:20;;;;;;;14.03;9.83;;;;;;;8.58;94.36;102075.47;5052361;28;20202;-82
2021/12/15 04:53:48;;;;;;;13.47;10.27;;;;;;;8.57;93.88;102073.72;5055222;28;20215;-82
2021/12/15 04:56:16;;;;;;;14.07;10.40;;;;;;;8.59;93.92;102071.88;5052461;28;20202;-81
2021/12/15 04:58:43;;;;;;;14.50;10.60;;;;;;;8.59;94.77;102077.19;5053042;28;20223;-82
2021/12/15 05:01:11;;;;;;;12.83;9.70;;;;;;;8.59;93.86;102071.88;5051752;28;20288;-82
2021/12/15 05:03:40;;;;;;;14.70;10.23;;;;;;;8.58;93.80;102081.63;5049677;28;20590;-80
2021/12/15 05:06:07;;;;;;;16.10;11.33;;;;;;;8.60;94.30;102089.53;5046166;28;20236;-82
2021/12/15 05:08:36;;;;;;;12.33;10.10;;;;;;;8.60;93.86;102087.75;5039231;28;20226;-80
2021/12/15 05:11:03;;;;;;;13.70;10.90;;;;;;;8.61;93.73;102091.25;5052979;28;20217;-80
2021/12/15 05:13:30;;;;;;;13.17;10.37;;;;;;;8.62;94.63;102093.00;5060004;28;20205;-81
2021/12/15 05:15:58;;;;;;;15.50;11.70;;;;;;;8.61;93.95;102088.63;5049537;28;20228;-82
2021/12/15 05:18:26;;;;;;;17.07;11.43;;;;;;;8.62;94.04;102082.38;5040102;28;20205;-81
2021/12/15 05:20:54;;;;;;;15.17;10.90;;;;;;;8.62;94.02;102090.34;5052464;28;20210;-82
2021/12/15 05:23:21;;;;;;;16.83;11.63;;;;;;;8.60;94.16;102094.84;5049314;28;20226;-82
2021/12/15 05:25:49;;;;;;;17.47;12.27;;;;;;;8.60;94.64;102086.88;5040219;28;20205;-82
2021/12/15 05:28:16;;;;;;;16.50;12.07;;;;;;;8.62;94.83;102098.31;5052431;28;20252;-81
2021/12/15 05:30:45;;;;;;;16.17;11.37;;;;;;;8.62;94.71;102090.34;5055776;28;20198;-83
2021/12/15 05:33:12;;;;;;;17.00;12.40;;;;;;;8.62;94.48;102099.19;5040955;28;20205;-83
2021/12/15 05:35:38;;;;;;;16.83;11.87;;;;;;;8.63;94.79;102089.44;5046890;28;20206;-80
2021/12/15 05:38:08;;;;;;;18.03;12.33;;;;;;;8.63;94.22;102100.94;5045852;28;20214;-83
2021/12/15 05:40:36;;;;;;;19.27;12.63;;;;;;;8.65;94.98;102106.19;5048513;28;20653;-82
2021/12/15 05:43:06;;;;;;;17.30;12.33;;;;;;;8.65;94.70;102103.53;5048540;28;20211;-83
2021/12/15 05:45:35;;;;;;;18.00;11.97;;;;;;;8.66;94.64;102105.28;5048136;28;20194;-83
2021/12/15 05:48:04;;;;;;;18.57;12.70;;;;;;;8.67;94.52;102105.22;5041558;28;20688;-82
2021/12/15 05:50:31;;;;;;;17.87;12.90;;;;;;;8.66;94.28;102113.25;5041307;28;20226;-81
2021/12/15 05:53:01;;;;;;;18.40;13.07;;;;;;;8.66;94.43;102107.94;5043763;28;20216;-81
2021/12/15 05:55:30;;;;;;;18.90;12.50;;;;;;;8.66;94.55;102108.81;5048543;28;20473;-83
2021/12/15 05:57:56;;;;;;;18.00;12.20;;;;;;;8.68;94.72;102108.75;5047522;28;20213;-82
2021/12/15 06:00:27;;;;;;;20.57;13.80;;;;;;;8.69;94.49;102114.03;5049090;28;20221;-82
2021/12/15 06:02:54;;;;;;;19.83;13.27;;;;;;;8.68;94.17;102106.97;5046363;28;20206;-82
2021/12/15 06:05:21;;;;;;;19.37;13.43;;;;;;;8.69;93.87;102111.38;5042782;28;20209;-83
2021/12/15 06:07:48;;;;;;;21.43;13.90;;;;;;;8.71;94.23;102129.91;5042243;28;20226;-83
2021/12/15 06:10:18;;;;;;;22.83;15.23;;;;;;;8.70;94.32;102114.88;5041505;28;20234;-82
2021/12/15 06:12:48;;;;;;;23.17;14.10;;;;;;;8.72;94.33;102128.13;5047577;28;20217;-83
2021/12/15 06:15:20;;;;;;;22.50;14.53;;;;;;;8.73;94.09;102133.38;5050211;28;20297;-82
2021/12/15 06:17:47;;;;;;;25.03;15.80;;;;;;;8.74;94.75;102134.25;5044906;28;20273;-84
2021/12/15 06:20:14;;;;;;;24.33;16.20;;;;;;;8.74;94.10;102139.56;5051917;28;20229;-85
2021/12/15 06:22:41;;;;;;;28.63;16.63;;;;;;;8.75;93.81;102136.88;5049713;28;20198;-83
2021/12/15 06:25:08;;;;;;;29.03;16.93;;;;;;;8.74;94.57;102132.47;5049211;28;20684;-84
2021/12/15 06:27:36;;;;;;;30.27;17.87;;;;;;;8.75;93.70;102130.69;5061546;28;20225;-82
2021/12/15 06:30:06;;;;;;;31.10;18.60;;;;;;;8.74;94.08;102131.59;5064000;28;20253;-82
2021/12/15 06:32:32;;;;;;;34.73;19.07;;;;;;;8.74;93.69;102128.94;5044145;28;20201;-82
2021/12/15 06:34:59;;;;;;;38.00;19.83;;;;;;;8.73;94.03;102133.38;5045137;28;20209;-82
2021/12/15 06:37:26;;;;;;;35.77;20.37;;;;;;;8.73;93.62;102136.03;5053540;28;20293;-82
2021/12/15 06:39:52;;;;;;;36.60;20.40;;;;;;;8.75;93.84;102136.00;5045559;28;20588;-82
2021/12/15 06:42:19;;;;;;;39.90;21.23;;;;;;;8.74;94.07;102136.91;5052074;28;20239;-82
2021/12/15 06:44:47;;;;;;;44.60;21.87;;;;;;;8.74;94.32;102140.44;5055971;28;20214;-82
2021/12/15 06:47:33;;;;;;;46.53;22.33;;;;;;;8.75;93.44;102141.31;5052109;28;20298;-81
2021/12/15 06:58:11;;;;;;;51.73;24.67;;;;;;;8.76;93.38;102124.47;5050693;28;20204;-81
2021/12/15 07:00:44;;;;;;;49.87;25.07;;;;;;;8.74;93.94;102129.81;5041483;28;20202;-82
2021/12/15 07:03:12;;;;;;;46.20;24.33;;;;;;;8.71;93.83;102119.28;5048638;28;20208;-81
2021/12/15 07:05:40;;;;;;;53.30;25.67;;;;;;;8.68;94.05;102125.56;5052713;28;20241;-82
2021/12/15 07:08:08;;;;;;;51.60;25.47;;;;;;;8.69;93.64;102134.41;5049248;28;20233;-82
2021/12/15 07:10:38;;;;;;;49.50;25.27;;;;;;;8.69;93.54;102139.72;5053704;28;20313;-82
2021/12/15 07:13:05;;;;;;;41.33;23.27;;;;;;;8.69;93.95;102150.34;5043747;28;20210;-81
2021/12/15 07:15:34;;;;;;;44.13;24.43;;;;;;;8.67;93.66;102150.38;5046240;28;20228;-83
2021/12/15 07:18:04;;;;;;;46.30;24.17;;;;;;;8.69;93.98;102150.34;5052126;28;20221;-84
2021/12/15 07:20:44;;;;;;;47.93;23.60;;;;;;;8.66;93.80;102148.63;5059853;28;20624;-84
2021/12/15 07:23:13;;;;;;;39.47;21.33;;;;;;;8.66;93.71;102150.44;5044285;28;20221;-83
2021/12/15 07:25:42;;;;;;;40.23;21.57;;;;;;;8.65;93.76;102151.34;5060360;28;20238;-84
2021/12/15 07:28:09;;;;;;;43.97;22.37;;;;;;;8.68;93.46;102164.53;5062526;28;20604;-83
2021/12/15 07:30:38;;;;;;;40.00;21.80;;;;;;;8.67;94.17;102163.66;5059146;28;20716;-83
2021/12/15 07:33:05;;;;;;;39.43;21.20;;;;;;;8.67;93.60;102168.97;5046229;28;20212;-84
2021/12/15 07:35:34;;;;;;;35.50;20.13;;;;;;;8.66;93.85;102169.88;5052754;28;20216;-83
2021/12/15 07:38:01;;;;;;;42.53;22.07;;;;;;;8.67;93.96;102176.06;5057411;28;20305;-84
2021/12/15 07:40:28;;;;;;;38.03;20.50;;;;;;;8.67;93.34;102176.06;5049163;28;20225;-83
2021/12/15 07:43:05;;;;;;;38.70;22.03;;;;;;;8.66;93.90;102169.88;5056321;28;20202;-83
2021/12/15 07:45:33;;;;;;;38.33;20.80;;;;;;;8.68;93.27;102173.38;5059595;28;20201;-83
2021/12/15 07:48:02;;;;;;;37.83;22.03;;;;;;;8.67;93.54;102176.06;5041064;28;20221;-83
2021/12/15 07:50:30;;;;;;;41.93;22.70;;;;;;;8.64;93.15;102177.03;5054789;28;20297;-83
2021/12/15 07:52:58;;;;;;;38.23;21.67;;;;;;;8.66;93.16;102182.28;5060452;28;20267;-83
2021/12/15 07:55:26;;;;;;;39.60;21.07;;;;;;;8.67;93.54;102189.34;5047823;28;20211;-84
2021/12/15 07:57:53;;;;;;;32.33;18.70;;;;;;;8.68;93.44;102178.69;5053045;28;20205;-84
2021/12/15 08:00:21;;;;;;;40.33;21.27;;;;;;;8.66;93.52;102182.28;5041116;28;20228;-84
2021/12/15 08:02:48;;;;;;;38.90;18.97;;;;;;;8.65;93.75;102176.13;5051285;28;20214;-83
2021/12/15 08:05:15;;;;;;;38.30;20.13;;;;;;;8.67;93.28;102181.38;5052609;28;20209;-83
2021/12/15 08:07:42;;;;;;;32.00;19.67;;;;;;;8.65;93.85;102172.59;5078546;28;20229;-85
2021/12/15 08:10:11;;;;;;;33.47;20.27;;;;;;;8.66;93.03;102179.63;5067194;28;20229;-84
2021/12/15 08:12:38;;;;;;;38.50;21.47;;;;;;;8.64;93.75;102176.16;5046023;28;20689;-84
2021/12/15 08:15:07;;;;;;;37.40;20.80;;;;;;;8.62;93.53;102176.19;5057908;28;20224;-84
2021/12/15 08:17:34;;;;;;;32.83;20.03;;;;;;;8.63;93.59;102174.41;5058613;28;20248;-84
2021/12/15 08:20:00;;;;;;;36.20;20.30;;;;;;;8.63;93.79;102177.06;5063402;28;20236;-84
2021/12/15 08:22:27;;;;;;;32.80;19.03;;;;;;;8.63;93.95;102179.72;5052329;28;20231;-83
2021/12/15 08:24:53;;;;;;;30.93;19.33;;;;;;;8.65;93.66;102177.91;5054298;28;20230;-84
2021/12/15 08:27:22;;;;;;;33.07;19.57;;;;;;;8.62;93.69;102183.31;5056110;28;20257;-83
2021/12/15 08:29:48;;;;;;;28.90;17.77;;;;;;;8.62;93.71;102180.66;5066202;28;20312;-83
2021/12/15 08:32:15;;;;;;;33.13;19.23;;;;;;;8.63;94.25;102177.06;5067989;28;20586;-83
2021/12/15 08:34:41;;;;;;;34.13;19.43;;;;;;;8.64;93.72;102179.69;5045800;28;20223;-83
2021/12/15 08:37:13;;;;;;;26.10;16.77;;;;;;;8.64;93.76;102181.47;5048498;28;20210;-83
2021/12/15 08:39:40;;;;;;;27.57;16.17;;;;;;;8.65;94.31;102186.75;5059094;28;20324;-83
2021/12/15 08:42:08;;;;;;;30.27;17.90;;;;;;;8.67;93.87;102189.34;5049385;28;20221;-84
2021/12/15 08:44:36;;;;;;;24.07;15.57;;;;;;;8.70;94.28;102192.78;5056979;28;20213;-84
2021/12/15 08:47:04;;;;;;;24.80;16.50;;;;;;;8.73;93.87;102188.31;5052769;28;20217;-84
2021/12/15 08:49:30;;;;;;;24.63;15.43;;;;;;;8.74;94.09;102192.69;5044672;28;20233;-85
2021/12/15 08:51:57;;;;;;;22.07;15.07;;;;;;;8.74;94.67;102200.66;5038801;28;20210;-84
2021/12/15 08:54:27;;;;;;;20.93;14.20;;;;;;;8.74;94.11;102190.03;5038277;28;20212;-84
2021/12/15 08:56:55;;;;;;;22.70;16.13;;;;;;;8.74;94.25;102190.03;5051606;28;20222;-85
2021/12/15 08:59:22;;;;;;;19.63;14.13;;;;;;;8.77;94.50;102187.28;5062236;28;20633;-84
2021/12/15 09:01:52;;;;;;;22.37;15.77;;;;;;;8.74;94.58;102190.03;5064975;28;20209;-84
2021/12/15 09:04:19;;;;;;;19.67;15.17;;;;;;;8.72;94.26;102195.41;5039222;28;20581;-84
2021/12/15 09:06:48;;;;;;;21.80;14.73;;;;;;;8.75;94.47;102191.78;5037883;28;20749;-83
2021/12/15 09:09:21;;;;;;;22.33;15.00;;;;;;;8.75;94.58;102195.31;5039378;28;20325;-84
2021/12/15 09:11:50;;;;;;;23.10;15.30;;;;;;;8.74;94.14;102188.25;5046187;28;20213;-84
2021/12/15 09:14:17;;;;;;;18.47;13.03;;;;;;;8.76;94.35;102196.19;5055176;28;20213;-83
2021/12/15 09:16:46;;;;;;;19.03;14.03;;;;;;;8.78;94.07;102197.84;5046228;28;20210;-85
2021/12/15 09:19:15;;;;;;;18.50;13.23;;;;;;;8.79;94.86;102201.38;5057280;28;20248;-83
2021/12/15 09:21:46;;;;;;;18.03;12.87;;;;;;;8.77;94.97;102198.78;5056460;28;20656;-83
2021/12/15 09:24:16;;;;;;;18.70;13.07;;;;;;;8.77;94.60;102209.41;5045501;28;20301;-82
2021/12/15 09:26:45;;;;;;;15.20;11.70;;;;;;;8.82;94.56;102206.59;5056234;28;20217;-83
2021/12/15 09:29:13;;;;;;;16.73;11.77;;;;;;;8.81;95.02;102205.72;5046070;28;20325;-83
2021/12/15 09:31:40;;;;;;;15.23;11.77;;;;;;;8.83;94.72;102211.84;5053683;28;20550;-83
2021/12/15 09:34:10;;;;;;;14.00;9.90;;;;;;;8.85;94.60;102204.72;5048592;28;20249;-83
2021/12/15 09:36:39;;;;;;;15.63;11.20;;;;;;;8.86;94.78;102208.25;5053466;28;20210;-84
2021/12/15 09:39:09;;;;;;;14.00;10.73;;;;;;;8.86;95.35;102206.47;5049122;28;20225;-83
2021/12/15 09:41:36;;;;;;;12.93;9.07;;;;;;;8.88;94.56;102214.38;5055031;28;20205;-85
2021/12/15 09:44:08;;;;;;;10.93;8.60;;;;;;;8.89;95.16;102210.81;5057863;28;20216;-84
2021/12/15 09:46:42;;;;;;;12.37;9.00;;;;;;;8.89;94.65;102214.34;5047000;28;20212;-84
2021/12/15 09:57:45;;;;;;;12.40;9.07;;;;;;;8.94;94.93;102214.19;5051515;28;20219;-82
2021/12/15 10:03:01;;;;;;;10.57;8.33;;;;;;;8.96;94.28;102223.84;5043457;28;20228;-83
2021/12/15 10:05:40;;;;;;;11.53;8.10;;;;;;;8.98;94.87;102219.34;5049036;28;20241;-83
2021/12/15 10:19:19;;;;;;;15.40;11.00;;;;;;;9.00;94.24;102204.22;5047705;28;20335;-84
2021/12/15 10:21:58;;;;;;;15.57;11.97;;;;;;;8.99;94.49;102199.81;5052587;28;20213;-84
2021/12/15 10:24:33;;;;;;;16.40;13.57;;;;;;;8.94;94.42;102209.75;5048693;28;20213;-84
2021/12/15 10:27:04;;;;;;;16.07;13.20;;;;;;;8.95;94.45;102213.28;5053231;28;20205;-84
2021/12/15 10:29:31;;;;;;;15.00;11.73;;;;;;;8.96;94.59;102209.69;5045330;28;20241;-84
2021/12/15 10:32:04;;;;;;;13.93;10.63;;;;;;;8.95;94.68;102208.84;5051524;28;20205;-83
2021/12/15 10:34:31;;;;;;;12.07;10.17;;;;;;;8.99;94.80;102204.28;5056703;28;20209;-84
2021/12/15 10:37:00;;;;;;;13.63;11.20;;;;;;;8.96;94.48;102207.03;5054521;28;20208;-84
2021/12/15 10:39:27;;;;;;;12.90;10.90;;;;;;;8.98;94.85;102213.16;5052341;28;20237;-83
2021/12/15 10:41:55;;;;;;;14.87;12.83;;;;;;;8.95;94.99;102205.31;5054613;28;20472;-84
2021/12/15 10:44:24;;;;;;;12.80;9.40;;;;;;;8.97;94.35;102201.66;5055300;28;20663;-83
2021/12/15 10:46:54;;;;;;;14.07;11.83;;;;;;;8.98;94.77;102203.41;5052871;28;20209;-83
2021/12/15 10:49:24;;;;;;;11.73;10.20;;;;;;;9.01;94.58;102203.31;5050628;28;20351;-83
2021/12/15 10:51:53;;;;;;;13.33;11.27;;;;;;;9.01;94.49;102208.63;5054242;28;20382;-83
2021/12/15 10:54:23;;;;;;;11.20;9.80;;;;;;;9.02;94.37;102205.03;5059748;28;20205;-83
2021/12/15 10:57:00;;;;;;;12.43;10.43;;;;;;;9.02;94.17;102204.19;5041112;28;20210;-83
2021/12/15 10:59:31;;;;;;;11.17;9.63;;;;;;;9.02;94.55;102199.72;5057814;28;20217;-82
2021/12/15 11:02:02;;;;;;;11.57;9.87;;;;;;;9.03;94.87;102197.94;5055358;28;20205;-82
2021/12/15 11:04:37;;;;;;;11.67;8.13;;;;;;;9.05;94.25;102196.97;5046382;28;20210;-82
2021/12/15 11:07:14;;;;;;;9.07;7.43;;;;;;;9.07;94.77;102198.72;5048463;28;20205;-83
2021/12/15 11:09:44;;;;;;;10.87;9.30;;;;;;;9.03;94.35;102193.50;5046834;28;20293;-82
2021/12/15 11:12:16;;;;;;;8.40;7.50;;;;;;;9.05;94.63;102191.66;5054238;28;20271;-83
2021/12/15 11:14:44;;;;;;;9.77;7.37;;;;;;;9.05;94.67;102194.31;5047154;28;20351;-82
2021/12/15 11:17:16;;;;;;;10.53;9.43;;;;;;;9.08;94.29;102198.69;5060467;28;20211;-82
2021/12/15 11:19:47;;;;;;;9.50;8.50;;;;;;;9.08;94.63;102196.03;5053312;28;20258;-82
2021/12/15 11:22:59;;;;;;;12.57;10.53;;;;;;;9.09;94.74;102196.88;5047058;28;20285;-83
2021/12/15 11:25:52;;;;;;;9.77;8.73;;;;;;;9.10;93.97;102190.66;4999965;28;20237;-81
2021/12/15 11:28:23;;;;;;;11.33;8.90;;;;;;;9.10;94.06;102195.97;5050914;28;20220;-83
2021/12/15 11:30:55;;;;;;;9.40;7.83;;;;;;;9.11;94.41;102195.06;5059569;28;20205;-83
2021/12/15 11:33:25;;;;;;;9.23;8.33;;;;;;;9.09;94.54;102195.09;5053839;28;20312;-81
2021/12/15 11:35:55;;;;;;;8.70;7.70;;;;;;;9.10;94.67;102190.66;5050485;28;20214;-82
2021/12/15 11:38:23;;;;;;;14.07;10.23;;;;;;;9.13;94.67;102194.09;5058554;28;20276;-81
2021/12/15 11:41:02;;;;;;;8.23;7.07;;;;;;;9.14;94.42;102187.81;5066031;28;20219;-82
2021/12/15 11:43:43;;;;;;;9.37;7.87;;;;;;;9.14;93.87;102192.25;5060871;28;20217;-81
2021/12/15 11:46:20;;;;;;;12.67;10.67;;;;;;;9.15;94.43;102191.34;5040301;28;20274;-82
2021/12/15 11:48:52;;;;;;;13.13;11.73;;;;;;;9.16;94.08;102193.09;5050029;28;20317;-82
2021/12/15 11:51:28;;;;;;;22.23;18.43;;;;;;;9.16;94.32;102201.94;5051061;28;20194;-81
2021/12/15 11:53:55;;;;;;;10.47;8.63;;;;;;;9.20;93.73;102194.72;5050894;28;20216;-82
2021/12/15 11:56:26;;;;;;;9.73;8.40;;;;;;;9.22;94.06;102190.25;5049622;28;20224;-82
2021/12/15 11:58:59;;;;;;;10.90;9.80;;;;;;;9.21;93.95;102191.16;5052512;28;20225;-83
2021/12/15 12:01:46;;;;;;;10.13;8.93;;;;;;;9.25;94.14;102188.34;5049211;28;20214;-82
2021/12/15 12:04:23;;;;;;;9.97;8.97;;;;;;;9.25;93.26;102195.47;5051239;28;20220;-81
2021/12/15 12:06:53;;;;;;;17.83;14.77;;;;;;;9.28;93.64;102196.22;5041787;28;20202;-80
2021/12/15 12:09:21;;;;;;;49.57;35.07;;;;;;;9.30;93.21;102189.09;5049123;28;20239;-81
2021/12/15 12:11:53;;;;;;;10.87;9.77;;;;;;;9.33;93.43;102198.72;5044976;28;20206;-81
2021/12/15 12:14:39;;;;;;;13.23;11.83;;;;;;;9.34;93.63;102197.78;5049087;28;20293;-82
2021/12/15 12:17:12;;;;;;;12.40;11.10;;;;;;;9.35;93.63;102196.88;5051293;28;20210;-81
2021/12/15 12:19:42;;;;;;;11.23;10.03;;;;;;;9.36;93.63;102190.63;5042925;28;20708;-82
2021/12/15 12:22:09;;;;;;;13.23;11.83;;;;;;;9.35;93.29;102186.25;5046864;28;20587;-81
2021/12/15 12:24:37;;;;;;;13.63;11.63;;;;;;;9.37;93.28;102195.91;5049760;28;20201;-81
2021/12/15 12:27:07;;;;;;;13.97;12.43;;;;;;;9.38;93.43;102196.78;5048460;28;20740;-81